createdAt,value
2024-05-09T00:02:15.519Z,59.26
2024-05-09T00:05:02.090Z,59.51
2024-05-09T00:07:48.482Z,59.26
2024-05-09T00:10:37.694Z,59.38
2024-05-09T00:13:25.308Z,60.24
2024-05-09T00:16:11.266Z,59.26
2024-05-09T00:18:57.431Z,58.86
2024-05-09T00:21:43.684Z,58.55
2024-05-09T00:24:29.924Z,58.60
2024-05-09T00:27:16.055Z,58.65
2024-05-09T00:30:03.937Z,58.45
2024-05-09T00:32:50.403Z,58.37
2024-05-09T00:35:37.281Z,58.15
2024-05-09T00:38:23.629Z,58.18
2024-05-09T00:41:09.943Z,57.72
2024-05-09T00:43:56.325Z,57.33
2024-05-09T00:46:43.730Z,57.26
2024-05-09T00:49:32.169Z,59.46
2024-05-09T00:52:18.196Z,59.68
2024-05-09T00:55:05.858Z,58.86
2024-05-09T00:57:52.000Z,59.10
2024-05-09T01:00:40.598Z,58.83
2024-05-09T01:03:27.875Z,58.88
2024-05-09T01:06:14.312Z,58.78
2024-05-09T01:09:00.674Z,59.39
2024-05-09T01:11:47.128Z,60.00
2024-05-09T01:14:36.583Z,59.71
2024-05-09T01:17:23.758Z,59.16
2024-05-09T01:20:12.981Z,60.09
2024-05-09T01:23:06.906Z,59.73
2024-05-09T01:25:53.151Z,60.20
2024-05-09T01:28:39.308Z,59.75
2024-05-09T01:31:25.464Z,59.61
2024-05-09T01:34:11.681Z,59.71
2024-05-09T01:36:58.036Z,59.11
2024-05-09T01:39:44.254Z,59.73
2024-05-09T01:42:30.235Z,59.11
2024-05-09T01:45:17.811Z,59.17
2024-05-09T01:48:05.080Z,59.67
2024-05-09T01:50:51.352Z,59.70
2024-05-09T01:53:38.430Z,59.84
2024-05-09T01:56:24.908Z,61.06
2024-05-09T01:59:11.114Z,61.63
2024-05-09T02:01:58.091Z,65.26
2024-05-09T02:04:48.469Z,65.42
2024-05-09T02:07:35.068Z,63.16
2024-05-09T02:10:26.371Z,57.85
2024-05-09T02:13:18.311Z,54.68
2024-05-09T02:16:10.630Z,53.52
2024-05-09T02:18:57.250Z,54.22
2024-05-09T02:21:43.603Z,55.23
2024-05-09T02:24:29.850Z,55.92
2024-05-09T02:27:16.212Z,56.14
2024-05-09T02:30:02.402Z,56.79
2024-05-09T02:32:50.158Z,57.38
2024-05-09T02:35:39.331Z,57.73
2024-05-09T02:38:25.428Z,58.09
2024-05-09T02:41:11.996Z,58.67
2024-05-09T02:43:58.087Z,58.71
2024-05-09T02:46:44.745Z,58.89
2024-05-09T02:49:31.162Z,59.17
2024-05-09T02:52:18.687Z,59.36
2024-05-09T02:55:05.010Z,59.54
2024-05-09T02:57:50.973Z,59.55
2024-05-09T03:00:40.789Z,59.84
2024-05-09T03:03:29.013Z,59.67
2024-05-09T03:06:15.343Z,59.78
2024-05-09T03:09:04.086Z,59.64
2024-05-09T03:11:51.571Z,59.75
2024-05-09T03:14:37.886Z,59.66
2024-05-09T03:17:24.300Z,60.07
2024-05-09T03:20:17.537Z,60.13
2024-05-09T03:23:10.427Z,60.06
2024-05-09T03:25:57.151Z,60.11
2024-05-09T03:28:43.748Z,60.18
2024-05-09T03:31:30.097Z,60.28
2024-05-09T03:34:16.300Z,60.62
2024-05-09T03:37:02.690Z,60.72
2024-05-09T03:39:48.552Z,60.61
2024-05-09T03:42:40.056Z,60.48
2024-05-09T03:45:26.234Z,60.49
2024-05-09T03:48:12.600Z,60.45
2024-05-09T03:50:59.423Z,60.61
2024-05-09T03:53:45.484Z,60.81
2024-05-09T03:56:31.812Z,60.77
2024-05-09T03:59:18.342Z,60.60
2024-05-09T04:02:05.749Z,60.31
2024-05-09T04:04:51.993Z,60.06
2024-05-09T04:07:38.190Z,59.97
2024-05-09T04:10:32.353Z,59.61
2024-05-09T04:13:19.950Z,59.29
2024-05-09T04:16:09.933Z,59.13
2024-05-09T04:18:56.556Z,58.99
2024-05-09T04:21:43.133Z,58.88
2024-05-09T04:24:29.135Z,58.69
2024-05-09T04:27:14.988Z,58.48
2024-05-09T04:30:01.148Z,58.24
2024-05-09T04:32:47.351Z,58.13
2024-05-09T04:35:33.987Z,58.06
2024-05-09T04:38:20.579Z,57.95
2024-05-09T04:41:07.105Z,57.74
2024-05-09T04:43:53.142Z,57.43
2024-05-09T04:46:39.635Z,57.20
2024-05-09T04:49:26.298Z,56.94
2024-05-09T04:52:12.456Z,56.68
2024-05-09T04:54:59.046Z,56.59
2024-05-09T04:57:45.365Z,56.54
2024-05-09T05:00:36.610Z,56.26
2024-05-09T05:03:25.351Z,56.01
2024-05-09T05:06:11.671Z,55.67
2024-05-09T05:08:57.714Z,55.32
2024-05-09T05:11:44.255Z,55.09
2024-05-09T05:14:30.761Z,54.94
2024-05-09T05:17:17.221Z,54.71
2024-05-09T05:20:04.713Z,54.53
2024-05-09T05:22:50.901Z,54.38
2024-05-09T05:25:37.231Z,53.92
2024-05-09T05:28:23.543Z,53.59
2024-05-09T05:31:09.955Z,53.24
2024-05-09T05:33:56.081Z,52.62
2024-05-09T05:36:42.611Z,52.27
2024-05-09T05:39:28.513Z,51.95
2024-05-09T05:42:14.760Z,51.73
2024-05-09T05:45:01.465Z,51.34
2024-05-09T05:47:47.742Z,50.77
2024-05-09T05:50:37.363Z,50.39
2024-05-09T05:53:25.154Z,50.18
2024-05-09T05:56:11.459Z,49.47
2024-05-09T05:58:57.897Z,48.72
2024-05-09T06:01:44.016Z,48.33
2024-05-09T06:04:30.285Z,47.49
2024-05-09T06:07:16.644Z,46.00
2024-05-09T06:10:05.287Z,45.84
2024-05-09T06:12:53.248Z,45.44
2024-05-09T06:15:40.154Z,44.70
2024-05-09T06:18:26.978Z,42.53
2024-05-09T06:21:16.396Z,37.92
2024-05-09T06:24:05.321Z,34.53
2024-05-09T06:26:52.427Z,34.54
2024-05-09T06:29:40.881Z,34.00
2024-05-09T06:32:27.164Z,33.73
2024-05-09T06:35:13.851Z,33.51
2024-05-09T06:38:00.530Z,33.85
2024-05-09T06:40:46.869Z,33.42
2024-05-09T06:43:34.449Z,32.13
2024-05-09T06:46:21.654Z,30.78
2024-05-09T06:49:10.841Z,30.53
2024-05-09T06:51:58.980Z,29.83
2024-05-09T06:54:45.151Z,27.49
2024-05-09T06:57:31.472Z,26.73
2024-05-09T07:00:26.812Z,26.26
2024-05-09T07:03:18.767Z,25.88
2024-05-09T07:06:06.113Z,25.57
2024-05-09T07:08:52.835Z,25.30
2024-05-09T07:11:39.009Z,25.04
2024-05-09T07:14:25.552Z,24.64
2024-05-09T07:17:12.014Z,24.75
2024-05-09T07:19:59.333Z,24.91
2024-05-09T07:22:45.444Z,24.64
2024-05-09T07:25:31.746Z,24.19
2024-05-09T07:28:20.389Z,24.62
2024-05-09T07:31:06.926Z,24.91
2024-05-09T07:33:53.316Z,25.16
2024-05-09T07:36:39.555Z,24.96
2024-05-09T07:39:25.799Z,25.12
2024-05-09T07:42:11.681Z,25.26
2024-05-09T07:45:11.223Z,25.53
2024-05-09T07:52:38.252Z,26.27
2024-05-09T07:54:01.418Z,26.16
2024-05-09T07:56:48.199Z,26.31
2024-05-09T07:59:37.618Z,26.55
2024-05-09T08:02:24.212Z,27.06
2024-05-09T08:05:10.862Z,27.52
2024-05-09T08:07:57.121Z,27.86
2024-05-09T08:10:43.441Z,28.37
2024-05-09T08:13:29.757Z,28.44
2024-05-09T08:16:15.992Z,28.09
2024-05-09T08:19:02.680Z,27.44
2024-05-09T08:21:49.631Z,26.28
2024-05-09T08:24:35.837Z,25.24
2024-05-09T08:27:22.346Z,25.20
2024-05-09T08:30:15.432Z,24.53
2024-05-09T08:33:08.243Z,24.40
2024-05-09T08:35:54.814Z,24.72
2024-05-09T08:38:40.877Z,24.75
2024-05-09T08:41:27.393Z,24.55
2024-05-09T08:44:13.648Z,24.17
2024-05-09T08:46:59.909Z,24.50
2024-05-09T08:49:48.079Z,24.89
2024-05-09T08:52:34.466Z,24.86
2024-05-09T08:55:21.351Z,24.33
2024-05-09T08:58:14.448Z,23.88
2024-05-09T09:01:03.298Z,22.77
2024-05-09T09:03:52.860Z,22.65
2024-05-09T09:06:39.185Z,22.55
2024-05-09T09:09:26.637Z,21.92
2024-05-09T09:12:13.050Z,21.24
2024-05-09T09:14:59.497Z,21.04
2024-05-09T09:17:58.537Z,20.60
2024-05-09T09:20:44.843Z,20.76
2024-05-09T09:23:32.615Z,20.56
2024-05-09T09:26:18.910Z,20.84
2024-05-09T09:29:05.071Z,20.87
2024-05-09T09:32:07.379Z,20.50
2024-05-09T09:34:53.668Z,20.57
2024-05-09T09:37:40.552Z,20.46
2024-05-09T09:40:34.792Z,20.41
2024-05-09T09:43:25.478Z,20.37
2024-05-09T09:46:13.212Z,20.34
2024-05-09T09:49:00.438Z,20.41
2024-05-09T09:51:47.688Z,20.51
2024-05-09T09:54:35.062Z,21.11
2024-05-09T09:57:23.217Z,21.38
2024-05-09T10:00:17.271Z,20.97
2024-05-09T10:03:07.139Z,21.69
2024-05-09T10:05:54.389Z,21.92
2024-05-09T10:08:42.021Z,21.93
2024-05-09T10:11:31.781Z,21.78
2024-05-09T10:14:21.665Z,21.79
2024-05-09T10:17:08.177Z,21.68
2024-05-09T10:20:11.885Z,21.47
2024-05-09T10:23:04.798Z,21.51
2024-05-09T10:26:00.355Z,21.49
2024-05-09T10:28:46.676Z,21.93
2024-05-09T10:31:33.251Z,21.94
2024-05-09T10:34:23.357Z,21.96
2024-05-09T10:37:10.010Z,21.97
2024-05-09T10:39:58.206Z,22.01
2024-05-09T10:42:45.129Z,21.81
2024-05-09T10:45:31.238Z,21.85
2024-05-09T10:48:17.583Z,21.66
2024-05-09T10:51:04.603Z,21.65
2024-05-09T10:53:51.779Z,21.38
2024-05-09T10:56:38.303Z,21.31
2024-05-09T10:59:24.943Z,21.12
2024-05-09T11:02:11.730Z,21.29
2024-05-09T11:04:58.327Z,21.12
2024-05-09T11:07:44.749Z,21.31
2024-05-09T11:10:34.066Z,21.39
2024-05-09T11:13:38.167Z,21.35
2024-05-09T11:16:24.460Z,21.34
2024-05-09T11:19:13.074Z,21.16
2024-05-09T11:22:02.407Z,21.32
2024-05-09T11:24:48.769Z,21.68
2024-05-09T11:27:35.354Z,22.04
2024-05-09T11:30:29.644Z,22.32
2024-05-09T11:33:19.041Z,22.76
2024-05-09T11:36:06.634Z,22.75
2024-05-09T11:38:52.871Z,23.18
2024-05-09T11:41:39.403Z,23.32
2024-05-09T11:44:26.394Z,23.59
2024-05-09T11:47:12.583Z,23.69
2024-05-09T11:49:58.959Z,24.12
2024-05-09T11:52:45.470Z,24.54
2024-05-09T11:55:35.617Z,25.25
2024-05-09T11:58:22.884Z,26.07
2024-05-09T12:01:09.284Z,26.56
2024-05-09T12:03:55.821Z,27.33
2024-05-09T12:06:42.353Z,27.69
2024-05-09T12:09:28.901Z,27.92
2024-05-09T12:12:14.866Z,28.45
2024-05-09T12:15:01.394Z,29.17
2024-05-09T12:17:50.763Z,29.25
2024-05-09T12:20:39.551Z,29.60
2024-05-09T12:23:27.126Z,30.07
2024-05-09T12:26:15.069Z,30.18
2024-05-09T12:29:01.101Z,30.72
2024-05-09T12:31:47.484Z,30.86
2024-05-09T12:34:33.621Z,31.41
2024-05-09T12:37:19.967Z,31.30
2024-05-09T12:40:15.791Z,31.47
2024-05-09T12:43:06.760Z,31.62
2024-05-09T12:45:53.056Z,31.60
2024-05-09T12:48:39.943Z,32.44
2024-05-09T12:51:26.237Z,33.03
2024-05-09T12:54:12.170Z,33.44
2024-05-09T12:56:58.982Z,33.67
2024-05-09T12:59:45.208Z,34.04
2024-05-09T13:02:31.534Z,34.57
2024-05-09T13:05:17.929Z,34.83
2024-05-09T13:08:04.731Z,35.08
2024-05-09T13:10:51.129Z,35.49
2024-05-09T13:13:37.180Z,36.45
2024-05-09T13:16:23.687Z,36.26
2024-05-09T13:19:10.059Z,36.74
2024-05-09T13:21:56.130Z,36.69
2024-05-09T13:24:42.466Z,36.55
2024-05-09T13:27:28.639Z,36.49
2024-05-09T13:30:21.431Z,36.92
2024-05-09T13:33:13.746Z,36.62
2024-05-09T13:36:00.456Z,36.69
2024-05-09T13:38:46.569Z,37.74
2024-05-09T13:41:32.783Z,37.46
2024-05-09T13:44:19.150Z,37.80
2024-05-09T13:47:05.157Z,38.49
2024-05-09T13:49:51.344Z,38.06
2024-05-09T13:52:37.815Z,38.49
2024-05-09T13:55:24.203Z,38.19
2024-05-09T13:58:10.926Z,38.57
2024-05-09T14:00:57.601Z,38.95
2024-05-09T14:03:44.072Z,39.03
2024-05-09T14:06:30.583Z,39.26
2024-05-09T14:09:17.074Z,39.76
2024-05-09T14:12:03.750Z,39.84
2024-05-09T14:14:49.756Z,40.72
2024-05-09T14:17:36.171Z,39.89
2024-05-09T14:20:30.695Z,40.94
2024-05-09T14:23:18.685Z,40.38
2024-05-09T14:26:04.751Z,40.50
2024-05-09T14:28:50.964Z,40.69
2024-05-09T14:31:39.355Z,40.90
2024-05-09T14:34:27.195Z,41.45
2024-05-09T14:37:13.730Z,41.57
2024-05-09T14:40:00.077Z,41.04
2024-05-09T14:42:46.489Z,41.02
2024-05-09T14:45:33.699Z,40.63
2024-05-09T14:48:20.224Z,40.09
2024-05-09T14:51:06.806Z,39.89
2024-05-09T14:53:53.118Z,39.77
2024-05-09T14:56:39.643Z,39.95
2024-05-09T14:59:26.025Z,40.34
2024-05-09T15:02:12.213Z,40.52
2024-05-09T15:04:58.527Z,40.67
2024-05-09T15:07:45.213Z,40.84
2024-05-09T15:10:35.370Z,40.99
2024-05-09T15:13:24.092Z,40.85
2024-05-09T15:16:10.505Z,40.72
2024-05-09T15:18:57.242Z,40.73
2024-05-09T15:21:43.467Z,40.78
2024-05-09T15:24:30.061Z,40.84
2024-05-09T15:27:17.433Z,40.89
2024-05-09T15:30:08.503Z,41.01
2024-05-09T15:32:56.962Z,41.09
2024-05-09T15:35:45.578Z,40.98
2024-05-09T15:38:32.142Z,40.86
2024-05-09T15:41:18.207Z,40.63
2024-05-09T15:44:04.703Z,40.49
2024-05-09T15:46:52.076Z,40.57
2024-05-09T15:49:38.470Z,40.57
2024-05-09T15:52:24.843Z,40.61
2024-05-09T15:55:11.328Z,40.86
2024-05-09T15:57:57.427Z,41.24
2024-05-09T16:00:45.493Z,41.36
2024-05-09T16:03:33.362Z,41.53
2024-05-09T16:06:20.533Z,41.74
2024-05-09T16:09:07.444Z,42.08
2024-05-09T16:11:54.198Z,42.38
2024-05-09T16:14:40.539Z,42.50
2024-05-09T16:17:27.069Z,42.46
2024-05-09T16:20:18.314Z,42.80
2024-05-09T16:23:12.157Z,43.19
2024-05-09T16:25:58.589Z,43.10
2024-05-09T16:28:44.674Z,43.31
2024-05-09T16:31:30.972Z,43.31
2024-05-09T16:34:17.207Z,43.77
2024-05-09T16:37:05.757Z,45.54
2024-05-09T16:39:52.160Z,44.62
2024-05-09T16:42:38.473Z,44.69
2024-05-09T16:45:24.290Z,45.64
2024-05-09T16:48:10.874Z,45.25
2024-05-09T16:50:57.181Z,45.53
2024-05-09T16:53:43.474Z,45.60
2024-05-09T16:56:30.047Z,45.61
2024-05-09T16:59:17.701Z,45.66
2024-05-09T17:02:04.451Z,45.65
2024-05-09T17:04:50.896Z,45.34
2024-05-09T17:07:37.906Z,45.12
2024-05-09T17:10:31.299Z,44.90
2024-05-09T17:13:20.312Z,44.86
2024-05-09T17:16:09.678Z,44.91
2024-05-09T17:18:56.297Z,44.74
2024-05-09T17:21:42.830Z,44.78
2024-05-09T17:24:29.122Z,44.99
2024-05-09T17:27:15.342Z,44.88
2024-05-09T17:30:03.467Z,44.88
2024-05-09T17:32:51.282Z,45.00
2024-05-09T17:35:37.632Z,44.91
2024-05-09T17:38:23.819Z,44.97
2024-05-09T17:41:09.824Z,44.83
2024-05-09T17:43:55.687Z,45.00
2024-05-09T17:46:42.368Z,45.04
2024-05-09T17:49:28.645Z,45.06
2024-05-09T17:52:14.857Z,45.15
2024-05-09T17:55:01.102Z,45.43
2024-05-09T17:57:48.027Z,45.47
2024-05-09T18:00:39.418Z,45.86
2024-05-09T18:03:27.956Z,45.77
2024-05-09T18:06:15.727Z,46.14
2024-05-09T18:09:02.118Z,46.37
2024-05-09T18:11:48.523Z,46.67
2024-05-09T18:14:35.507Z,47.50
2024-05-09T18:17:25.637Z,47.27
2024-05-09T18:20:19.653Z,47.04
2024-05-09T18:23:17.681Z,47.61
2024-05-09T18:26:05.326Z,47.73
2024-05-09T18:28:51.662Z,48.07
2024-05-09T18:31:37.855Z,48.96
2024-05-09T18:34:24.320Z,50.03
2024-05-09T18:37:11.067Z,49.37
2024-05-09T18:39:57.431Z,49.45
2024-05-09T18:42:43.859Z,49.94
2024-05-09T18:45:30.137Z,49.54
2024-05-09T18:48:16.380Z,50.04
2024-05-09T18:51:04.416Z,51.06
2024-05-09T18:53:51.799Z,50.90
2024-05-09T18:56:40.125Z,50.89
2024-05-09T18:59:26.575Z,51.56
2024-05-09T19:02:13.508Z,51.27
2024-05-09T19:05:00.277Z,51.38
2024-05-09T19:07:47.496Z,51.01
2024-05-09T19:10:35.380Z,52.13
2024-05-09T19:13:24.173Z,51.65
2024-05-09T19:16:10.271Z,52.55
2024-05-09T19:18:56.820Z,53.07
2024-05-09T19:21:43.595Z,52.28
2024-05-09T19:24:30.175Z,52.80
2024-05-09T19:27:16.526Z,52.62
2024-05-09T19:30:04.285Z,52.39
2024-05-09T19:32:54.141Z,52.98
2024-05-09T19:35:42.546Z,52.74
2024-05-09T19:38:29.168Z,52.64
2024-05-09T19:41:15.686Z,52.41
2024-05-09T19:44:01.979Z,53.20
2024-05-09T19:46:48.246Z,53.58
2024-05-09T19:49:34.506Z,53.20
2024-05-09T19:52:20.573Z,53.60
2024-05-09T19:55:06.757Z,53.56
2024-05-09T19:57:53.110Z,53.49
2024-05-09T20:00:41.775Z,55.27
2024-05-09T20:03:31.635Z,54.09
2024-05-09T20:06:18.884Z,54.20
2024-05-09T20:09:05.150Z,53.98
2024-05-09T20:11:51.277Z,53.35
2024-05-09T20:14:37.754Z,53.30
2024-05-09T20:17:24.123Z,53.51
2024-05-09T20:20:20.282Z,53.56
2024-05-09T20:23:14.512Z,53.36
2024-05-09T20:26:00.991Z,53.36
2024-05-09T20:28:47.161Z,53.41
2024-05-09T20:31:33.722Z,54.10
2024-05-09T20:34:20.049Z,53.62
2024-05-09T20:37:06.495Z,53.64
2024-05-09T20:39:52.574Z,53.47
2024-05-09T20:42:38.884Z,53.45
2024-05-09T20:45:25.382Z,53.76
2024-05-09T20:48:12.271Z,53.74
2024-05-09T20:50:58.563Z,53.57
2024-05-09T20:53:44.599Z,53.58
2024-05-09T20:56:31.058Z,53.55
2024-05-09T20:59:17.783Z,53.95
2024-05-09T21:02:04.658Z,53.51
2024-05-09T21:04:51.604Z,53.58
2024-05-09T21:07:37.705Z,53.69
2024-05-09T21:10:26.919Z,53.73
2024-05-09T21:13:13.790Z,53.99
2024-05-09T21:16:00.194Z,53.99
2024-05-09T21:18:46.681Z,54.15
2024-05-09T21:21:41.620Z,53.94
2024-05-09T21:24:27.912Z,54.02
2024-05-09T21:27:14.159Z,54.11
2024-05-09T21:30:00.578Z,54.30
2024-05-09T21:32:46.902Z,54.03
2024-05-09T21:35:33.485Z,54.12
2024-05-09T21:38:19.543Z,54.14
2024-05-09T21:41:07.030Z,54.58
2024-05-09T21:43:53.623Z,54.79
2024-05-09T21:46:39.657Z,54.23
2024-05-09T21:49:26.304Z,54.41
2024-05-09T21:52:12.954Z,54.31
2024-05-09T21:54:58.975Z,54.50
2024-05-09T21:57:45.330Z,54.83
2024-05-09T22:00:36.853Z,54.90
2024-05-09T22:03:25.191Z,54.45
2024-05-09T22:06:12.147Z,54.56
2024-05-09T22:08:58.622Z,54.58
2024-05-09T22:11:45.788Z,54.42
2024-05-09T22:14:32.237Z,54.61
2024-05-09T22:17:18.771Z,54.47
2024-05-09T22:20:11.991Z,54.32
2024-05-09T22:23:05.145Z,54.26
2024-05-09T22:25:51.311Z,54.29
2024-05-09T22:28:37.849Z,54.35
2024-05-09T22:31:24.214Z,54.24
2024-05-09T22:34:11.908Z,54.33
2024-05-09T22:36:58.260Z,54.22
2024-05-09T22:39:44.796Z,54.06
2024-05-09T22:42:30.897Z,54.06
2024-05-09T22:45:17.148Z,54.12
2024-05-09T22:48:04.807Z,54.09
2024-05-09T22:50:51.273Z,54.26
2024-05-09T22:53:37.810Z,54.09
2024-05-09T22:56:28.462Z,54.03
2024-05-09T22:59:14.490Z,54.04
2024-05-09T23:02:01.115Z,53.96
2024-05-09T23:04:47.463Z,53.88
2024-05-09T23:07:33.787Z,53.72
2024-05-09T23:10:27.472Z,53.68
2024-05-09T23:13:18.666Z,53.66
2024-05-09T23:16:05.701Z,53.62
2024-05-09T23:18:51.813Z,53.55
2024-05-09T23:21:40.020Z,53.49
2024-05-09T23:24:26.119Z,53.50
2024-05-09T23:27:12.151Z,53.53
2024-05-09T23:29:58.517Z,53.53
2024-05-09T23:32:44.757Z,53.50
2024-05-09T23:35:31.058Z,53.52
2024-05-09T23:38:18.369Z,53.78
2024-05-09T23:41:06.359Z,53.57
2024-05-09T23:43:52.641Z,53.63
2024-05-09T23:46:38.666Z,53.69
2024-05-09T23:49:24.802Z,53.53
2024-05-09T23:52:11.427Z,53.48
2024-05-09T23:54:58.040Z,53.61
2024-05-09T23:57:44.412Z,53.65
